Terminal Aerodrome Forecast
Issued by NWS

Home | Current Version | Previous Version | Text Only | Print | Product List | Glossary On
Versions: 1 2 3 4 5 6 7 8 9 10 11 12 13 14 15 16 17
000
FTUS42 TJSJ 220500 CCA
TAFISX
TAF COR
TISX 220559Z 2206/2306 07012KT P6SM VCTS SCT020CB BKN035 OVC045
      TEMPO 2206/2209 08010G20KT 3SM TSRA BKN020CB
     FM221300 13015G25KT P6SM VCTS SCT015CB BKN020 OVC040=

USA.gov is the U.S. government's official web portal to all federal, state and local government web resources and services.